Terminal Aerodrome Forecast
Issued by NWS

Current Version | Previous Version | Graphics & Text | Print | Product List | Glossary On
Versions: 1 2 3 4 5 6 7 8 9 10 11 12 13 14 15 16 17
969
FTUS41 KILN 181134
TAFLUK
TAF
KLUK 181134Z 1812/1912 23004KT P6SM SCT050
     FM190000 00000KT P6SM SCT250
     FM190600 00000KT 2SM BR SCT250=

USA.gov is the U.S. government's official web portal to all federal, state and local government web resources and services.